sensor_id;sensor_type;location;lat;lon;timestamp;P1;durP1;ratioP1;P2;durP2;ratioP2
77109;SDS011;66062;52.464;16.922;2023-07-16T00:01:31;4.85;;;2.75;;
77109;SDS011;66062;52.464;16.922;2023-07-16T00:03:56;5.28;;;2.55;;
77109;SDS011;66062;52.464;16.922;2023-07-16T00:06:22;4.20;;;2.80;;
77109;SDS011;66062;52.464;16.922;2023-07-16T00:08:47;5.30;;;2.83;;
77109;SDS011;66062;52.464;16.922;2023-07-16T00:11:13;7.47;;;3.10;;
77109;SDS011;66062;52.464;16.922;2023-07-16T00:13:38;6.18;;;3.03;;
77109;SDS011;66062;52.464;16.922;2023-07-16T00:16:03;5.18;;;2.58;;
77109;SDS011;66062;52.464;16.922;2023-07-16T00:18:29;7.60;;;2.65;;
77109;SDS011;66062;52.464;16.922;2023-07-16T00:20:55;7.70;;;2.53;;
77109;SDS011;66062;52.464;16.922;2023-07-16T00:23:20;5.95;;;2.80;;
77109;SDS011;66062;52.464;16.922;2023-07-16T00:25:46;4.15;;;2.70;;
77109;SDS011;66062;52.464;16.922;2023-07-16T00:28:11;7.97;;;3.17;;
77109;SDS011;66062;52.464;16.922;2023-07-16T00:30:37;4.53;;;2.83;;
77109;SDS011;66062;52.464;16.922;2023-07-16T00:33:02;5.88;;;3.08;;
77109;SDS011;66062;52.464;16.922;2023-07-16T00:35:28;6.60;;;3.17;;
77109;SDS011;66062;52.464;16.922;2023-07-16T00:37:53;6.97;;;2.70;;
77109;SDS011;66062;52.464;16.922;2023-07-16T00:40:18;5.13;;;2.90;;
77109;SDS011;66062;52.464;16.922;2023-07-16T00:42:44;6.53;;;2.85;;
77109;SDS011;66062;52.464;16.922;2023-07-16T00:45:11;6.40;;;3.17;;
77109;SDS011;66062;52.464;16.922;2023-07-16T00:47:41;6.20;;;3.25;;
77109;SDS011;66062;52.464;16.922;2023-07-16T00:50:09;7.25;;;3.63;;
77109;SDS011;66062;52.464;16.922;2023-07-16T00:52:36;5.97;;;2.80;;
77109;SDS011;66062;52.464;16.922;2023-07-16T00:55:02;5.30;;;2.63;;
77109;SDS011;66062;52.464;16.922;2023-07-16T00:57:27;5.80;;;2.72;;
77109;SDS011;66062;52.464;16.922;2023-07-16T00:59:54;4.82;;;3.10;;
77109;SDS011;66062;52.464;16.922;2023-07-16T01:02:19;11.20;;;3.75;;
77109;SDS011;66062;52.464;16.922;2023-07-16T01:04:45;8.23;;;3.72;;
77109;SDS011;66062;52.464;16.922;2023-07-16T01:07:11;5.07;;;3.38;;
77109;SDS011;66062;52.464;16.922;2023-07-16T01:09:40;10.05;;;3.90;;
77109;SDS011;66062;52.464;16.922;2023-07-16T01:12:07;7.40;;;3.40;;
77109;SDS011;66062;52.464;16.922;2023-07-16T01:17:02;5.20;;;2.88;;
77109;SDS011;66062;52.464;16.922;2023-07-16T01:19:31;5.50;;;3.10;;
77109;SDS011;66062;52.464;16.922;2023-07-16T01:30:28;6.75;;;3.00;;
77109;SDS011;66062;52.464;16.922;2023-07-16T01:35:21;5.07;;;3.50;;
77109;SDS011;66062;52.464;16.922;2023-07-16T01:37:47;4.95;;;3.30;;
77109;SDS011;66062;52.464;16.922;2023-07-16T01:40:12;6.97;;;3.30;;
77109;SDS011;66062;52.464;16.922;2023-07-16T01:42:39;4.60;;;3.42;;
77109;SDS011;66062;52.464;16.922;2023-07-16T01:45:05;5.55;;;3.55;;
77109;SDS011;66062;52.464;16.922;2023-07-16T01:49:59;4.80;;;3.15;;
77109;SDS011;66062;52.464;16.922;2023-07-16T01:52:24;5.55;;;3.65;;
77109;SDS011;66062;52.464;16.922;2023-07-16T01:54:50;10.63;;;3.63;;
77109;SDS011;66062;52.464;16.922;2023-07-16T01:57:15;7.85;;;3.10;;
77109;SDS011;66062;52.464;16.922;2023-07-16T01:59:40;6.43;;;3.75;;
77109;SDS011;66062;52.464;16.922;2023-07-16T02:02:06;5.70;;;3.00;;
77109;SDS011;66062;52.464;16.922;2023-07-16T02:04:31;4.70;;;2.92;;
77109;SDS011;66062;52.464;16.922;2023-07-16T02:06:57;5.75;;;3.35;;
77109;SDS011;66062;52.464;16.922;2023-07-16T02:09:22;7.97;;;3.80;;
77109;SDS011;66062;52.464;16.922;2023-07-16T02:11:48;6.72;;;3.63;;
77109;SDS011;66062;52.464;16.922;2023-07-16T02:14:13;12.35;;;3.78;;
77109;SDS011;66062;52.464;16.922;2023-07-16T02:16:39;7.32;;;3.63;;
77109;SDS011;66062;52.464;16.922;2023-07-16T02:19:05;6.65;;;3.88;;
77109;SDS011;66062;52.464;16.922;2023-07-16T02:21:30;12.35;;;4.00;;
77109;SDS011;66062;52.464;16.922;2023-07-16T02:23:56;5.72;;;3.47;;
77109;SDS011;66062;52.464;16.922;2023-07-16T02:26:21;7.95;;;4.22;;
77109;SDS011;66062;52.464;16.922;2023-07-16T02:28:47;6.63;;;3.50;;
77109;SDS011;66062;52.464;16.922;2023-07-16T02:31:12;6.13;;;3.88;;
77109;SDS011;66062;52.464;16.922;2023-07-16T02:33:37;7.35;;;3.53;;
77109;SDS011;66062;52.464;16.922;2023-07-16T02:36:03;6.93;;;3.75;;
77109;SDS011;66062;52.464;16.922;2023-07-16T02:38:28;10.35;;;3.80;;
77109;SDS011;66062;52.464;16.922;2023-07-16T02:40:54;9.20;;;3.42;;
77109;SDS011;66062;52.464;16.922;2023-07-16T02:43:19;7.40;;;3.85;;
77109;SDS011;66062;52.464;16.922;2023-07-16T02:45:45;5.60;;;3.67;;
77109;SDS011;66062;52.464;16.922;2023-07-16T02:48:10;7.90;;;3.95;;
77109;SDS011;66062;52.464;16.922;2023-07-16T02:50:36;7.35;;;3.75;;
77109;SDS011;66062;52.464;16.922;2023-07-16T02:53:05;6.78;;;3.70;;
77109;SDS011;66062;52.464;16.922;2023-07-16T02:55:31;6.22;;;3.53;;
77109;SDS011;66062;52.464;16.922;2023-07-16T02:57:57;6.03;;;3.83;;
77109;SDS011;66062;52.464;16.922;2023-07-16T03:00:23;7.68;;;4.00;;
77109;SDS011;66062;52.464;16.922;2023-07-16T03:02:48;5.72;;;3.30;;
77109;SDS011;66062;52.464;16.922;2023-07-16T03:05:15;5.95;;;3.58;;
77109;SDS011;66062;52.464;16.922;2023-07-16T03:07:41;9.55;;;3.58;;
77109;SDS011;66062;52.464;16.922;2023-07-16T03:10:06;6.43;;;3.30;;
77109;SDS011;66062;52.464;16.922;2023-07-16T03:12:32;7.63;;;3.85;;
77109;SDS011;66062;52.464;16.922;2023-07-16T03:14:57;5.20;;;3.47;;
77109;SDS011;66062;52.464;16.922;2023-07-16T03:17:23;9.57;;;3.58;;
77109;SDS011;66062;52.464;16.922;2023-07-16T03:19:48;6.38;;;3.65;;
77109;SDS011;66062;52.464;16.922;2023-07-16T03:22:14;6.70;;;3.78;;
77109;SDS011;66062;52.464;16.922;2023-07-16T03:24:39;7.93;;;4.20;;
77109;SDS011;66062;52.464;16.922;2023-07-16T03:27:05;7.60;;;3.53;;
77109;SDS011;66062;52.464;16.922;2023-07-16T03:29:32;6.32;;;3.63;;
77109;SDS011;66062;52.464;16.922;2023-07-16T03:31:58;8.27;;;3.80;;
77109;SDS011;66062;52.464;16.922;2023-07-16T03:34:23;7.30;;;3.50;;
77109;SDS011;66062;52.464;16.922;2023-07-16T03:36:49;7.32;;;3.30;;
77109;SDS011;66062;52.464;16.922;2023-07-16T03:39:14;7.60;;;3.92;;
77109;SDS011;66062;52.464;16.922;2023-07-16T03:41:40;6.22;;;3.88;;
77109;SDS011;66062;52.464;16.922;2023-07-16T03:44:05;5.80;;;3.70;;
77109;SDS011;66062;52.464;16.922;2023-07-16T03:46:31;9.57;;;3.50;;
77109;SDS011;66062;52.464;16.922;2023-07-16T03:48:56;5.88;;;3.83;;
77109;SDS011;66062;52.464;16.922;2023-07-16T03:51:21;5.32;;;3.63;;
77109;SDS011;66062;52.464;16.922;2023-07-16T03:53:47;5.70;;;3.83;;
77109;SDS011;66062;52.464;16.922;2023-07-16T03:56:12;13.43;;;4.05;;
77109;SDS011;66062;52.464;16.922;2023-07-16T03:58:38;7.43;;;3.40;;
77109;SDS011;66062;52.464;16.922;2023-07-16T04:01:03;6.93;;;4.30;;
77109;SDS011;66062;52.464;16.922;2023-07-16T04:03:28;4.82;;;3.42;;
77109;SDS011;66062;52.464;16.922;2023-07-16T04:06:01;6.78;;;3.95;;
77109;SDS011;66062;52.464;16.922;2023-07-16T04:08:29;4.90;;;3.67;;
77109;SDS011;66062;52.464;16.922;2023-07-16T04:10:55;6.90;;;3.38;;
77109;SDS011;66062;52.464;16.922;2023-07-16T04:13:20;5.57;;;3.67;;
77109;SDS011;66062;52.464;16.922;2023-07-16T04:15:46;8.27;;;3.78;;
77109;SDS011;66062;52.464;16.922;2023-07-16T04:18:11;7.20;;;3.47;;
77109;SDS011;66062;52.464;16.922;2023-07-16T04:20:37;4.93;;;3.67;;
77109;SDS011;66062;52.464;16.922;2023-07-16T04:23:02;5.40;;;3.22;;
77109;SDS011;66062;52.464;16.922;2023-07-16T04:25:27;5.20;;;3.38;;
77109;SDS011;66062;52.464;16.922;2023-07-16T04:27:53;11.43;;;3.20;;
77109;SDS011;66062;52.464;16.922;2023-07-16T04:30:18;7.93;;;3.28;;
77109;SDS011;66062;52.464;16.922;2023-07-16T04:32:44;4.57;;;3.00;;
77109;SDS011;66062;52.464;16.922;2023-07-16T04:35:09;7.60;;;3.20;;
77109;SDS011;66062;52.464;16.922;2023-07-16T04:37:34;5.63;;;3.13;;
77109;SDS011;66062;52.464;16.922;2023-07-16T04:42:26;4.63;;;3.05;;
77109;SDS011;66062;52.464;16.922;2023-07-16T04:44:52;4.97;;;2.83;;
77109;SDS011;66062;52.464;16.922;2023-07-16T04:47:17;8.80;;;3.03;;
77109;SDS011;66062;52.464;16.922;2023-07-16T04:49:42;3.95;;;2.78;;
77109;SDS011;66062;52.464;16.922;2023-07-16T04:52:08;4.90;;;2.90;;
77109;SDS011;66062;52.464;16.922;2023-07-16T04:54:37;4.72;;;2.67;;
77109;SDS011;66062;52.464;16.922;2023-07-16T04:57:03;5.55;;;2.42;;
77109;SDS011;66062;52.464;16.922;2023-07-16T04:59:29;5.72;;;2.58;;
77109;SDS011;66062;52.464;16.922;2023-07-16T05:01:54;6.13;;;2.95;;
77109;SDS011;66062;52.464;16.922;2023-07-16T05:04:20;4.30;;;2.35;;
77109;SDS011;66062;52.464;16.922;2023-07-16T05:06:45;4.47;;;2.85;;
77109;SDS011;66062;52.464;16.922;2023-07-16T05:09:11;5.57;;;2.55;;
77109;SDS011;66062;52.464;16.922;2023-07-16T05:11:36;4.32;;;2.25;;
77109;SDS011;66062;52.464;16.922;2023-07-16T05:14:03;7.05;;;2.33;;
77109;SDS011;66062;52.464;16.922;2023-07-16T05:16:28;5.95;;;2.80;;
77109;SDS011;66062;52.464;16.922;2023-07-16T05:18:54;4.38;;;2.00;;
77109;SDS011;66062;52.464;16.922;2023-07-16T05:21:19;3.92;;;2.08;;
77109;SDS011;66062;52.464;16.922;2023-07-16T05:23:44;3.67;;;2.20;;
77109;SDS011;66062;52.464;16.922;2023-07-16T05:26:10;7.20;;;2.55;;
77109;SDS011;66062;52.464;16.922;2023-07-16T05:28:35;5.90;;;2.80;;
77109;SDS011;66062;52.464;16.922;2023-07-16T05:31:01;7.13;;;2.08;;
77109;SDS011;66062;52.464;16.922;2023-07-16T05:33:27;6.30;;;1.75;;
77109;SDS011;66062;52.464;16.922;2023-07-16T05:35:53;5.30;;;2.28;;
77109;SDS011;66062;52.464;16.922;2023-07-16T05:38:19;3.60;;;2.00;;
77109;SDS011;66062;52.464;16.922;2023-07-16T05:40:44;3.80;;;1.63;;
77109;SDS011;66062;52.464;16.922;2023-07-16T05:43:10;4.18;;;2.05;;
77109;SDS011;66062;52.464;16.922;2023-07-16T05:45:36;5.82;;;2.63;;
77109;SDS011;66062;52.464;16.922;2023-07-16T05:48:02;4.53;;;1.52;;
77109;SDS011;66062;52.464;16.922;2023-07-16T05:50:28;10.13;;;2.05;;
77109;SDS011;66062;52.464;16.922;2023-07-16T05:52:54;3.70;;;1.95;;
77109;SDS011;66062;52.464;16.922;2023-07-16T05:55:19;4.07;;;1.95;;
77109;SDS011;66062;52.464;16.922;2023-07-16T05:57:45;3.20;;;1.95;;
77109;SDS011;66062;52.464;16.922;2023-07-16T06:00:10;2.85;;;1.65;;
77109;SDS011;66062;52.464;16.922;2023-07-16T06:02:36;3.33;;;1.92;;
77109;SDS011;66062;52.464;16.922;2023-07-16T06:05:01;6.05;;;2.33;;
77109;SDS011;66062;52.464;16.922;2023-07-16T06:07:27;4.15;;;1.83;;
77109;SDS011;66062;52.464;16.922;2023-07-16T06:09:52;3.85;;;1.55;;
77109;SDS011;66062;52.464;16.922;2023-07-16T06:12:17;2.47;;;1.75;;
77109;SDS011;66062;52.464;16.922;2023-07-16T06:14:43;6.90;;;1.77;;
77109;SDS011;66062;52.464;16.922;2023-07-16T06:17:08;5.95;;;1.88;;
77109;SDS011;66062;52.464;16.922;2023-07-16T06:19:34;4.93;;;1.75;;
77109;SDS011;66062;52.464;16.922;2023-07-16T06:21:59;3.22;;;1.48;;
77109;SDS011;66062;52.464;16.922;2023-07-16T06:24:24;4.05;;;1.98;;
77109;SDS011;66062;52.464;16.922;2023-07-16T06:26:50;5.55;;;2.08;;
77109;SDS011;66062;52.464;16.922;2023-07-16T06:29:15;2.88;;;1.88;;
77109;SDS011;66062;52.464;16.922;2023-07-16T06:31:42;4.47;;;1.83;;
77109;SDS011;66062;52.464;16.922;2023-07-16T06:34:08;5.43;;;2.20;;
77109;SDS011;66062;52.464;16.922;2023-07-16T06:36:33;3.33;;;1.70;;
77109;SDS011;66062;52.464;16.922;2023-07-16T06:38:59;2.85;;;1.55;;
77109;SDS011;66062;52.464;16.922;2023-07-16T06:41:25;5.22;;;1.55;;
77109;SDS011;66062;52.464;16.922;2023-07-16T06:43:51;2.28;;;1.42;;
77109;SDS011;66062;52.464;16.922;2023-07-16T06:46:16;3.80;;;1.40;;
77109;SDS011;66062;52.464;16.922;2023-07-16T06:48:41;6.13;;;1.75;;
77109;SDS011;66062;52.464;16.922;2023-07-16T06:51:07;3.33;;;1.40;;
77109;SDS011;66062;52.464;16.922;2023-07-16T06:53:32;2.85;;;1.48;;
77109;SDS011;66062;52.464;16.922;2023-07-16T06:55:58;3.13;;;1.40;;
77109;SDS011;66062;52.464;16.922;2023-07-16T06:58:30;2.28;;;1.40;;
77109;SDS011;66062;52.464;16.922;2023-07-16T07:00:59;3.58;;;1.30;;
77109;SDS011;66062;52.464;16.922;2023-07-16T07:03:25;2.67;;;1.42;;
77109;SDS011;66062;52.464;16.922;2023-07-16T07:05:50;3.28;;;1.42;;
77109;SDS011;66062;52.464;16.922;2023-07-16T07:08:16;2.53;;;1.40;;
77109;SDS011;66062;52.464;16.922;2023-07-16T07:10:41;3.40;;;1.42;;
77109;SDS011;66062;52.464;16.922;2023-07-16T07:13:07;2.75;;;1.25;;
77109;SDS011;66062;52.464;16.922;2023-07-16T07:15:32;3.65;;;1.17;;
77109;SDS011;66062;52.464;16.922;2023-07-16T07:17:57;8.18;;;1.10;;
77109;SDS011;66062;52.464;16.922;2023-07-16T07:20:23;2.00;;;1.15;;
77109;SDS011;66062;52.464;16.922;2023-07-16T07:22:48;3.97;;;1.65;;
77109;SDS011;66062;52.464;16.922;2023-07-16T07:25:14;2.22;;;1.20;;
77109;SDS011;66062;52.464;16.922;2023-07-16T07:27:39;3.25;;;1.42;;
77109;SDS011;66062;52.464;16.922;2023-07-16T07:30:05;3.30;;;1.42;;
77109;SDS011;66062;52.464;16.922;2023-07-16T07:32:30;2.90;;;1.33;;
77109;SDS011;66062;52.464;16.922;2023-07-16T07:34:56;6.32;;;1.92;;
77109;SDS011;66062;52.464;16.922;2023-07-16T07:37:21;4.28;;;1.75;;
77109;SDS011;66062;52.464;16.922;2023-07-16T07:39:51;2.40;;;1.25;;
77109;SDS011;66062;52.464;16.922;2023-07-16T07:42:17;5.50;;;1.80;;
77109;SDS011;66062;52.464;16.922;2023-07-16T07:44:42;2.58;;;1.02;;
77109;SDS011;66062;52.464;16.922;2023-07-16T07:47:08;3.35;;;1.88;;
77109;SDS011;66062;52.464;16.922;2023-07-16T07:49:33;2.53;;;1.00;;
77109;SDS011;66062;52.464;16.922;2023-07-16T07:51:59;2.50;;;1.48;;
77109;SDS011;66062;52.464;16.922;2023-07-16T07:54:25;3.80;;;1.33;;
77109;SDS011;66062;52.464;16.922;2023-07-16T07:56:50;2.95;;;1.40;;
77109;SDS011;66062;52.464;16.922;2023-07-16T07:59:16;2.35;;;1.40;;
77109;SDS011;66062;52.464;16.922;2023-07-16T08:01:42;3.97;;;1.33;;
77109;SDS011;66062;52.464;16.922;2023-07-16T08:04:07;3.45;;;1.50;;
77109;SDS011;66062;52.464;16.922;2023-07-16T08:06:33;2.05;;;1.10;;
77109;SDS011;66062;52.464;16.922;2023-07-16T08:08:58;2.38;;;1.05;;
77109;SDS011;66062;52.464;16.922;2023-07-16T08:11:23;2.38;;;1.23;;
77109;SDS011;66062;52.464;16.922;2023-07-16T08:13:49;2.17;;;0.93;;
77109;SDS011;66062;52.464;16.922;2023-07-16T08:16:14;1.77;;;1.02;;
77109;SDS011;66062;52.464;16.922;2023-07-16T08:18:40;4.35;;;1.33;;
77109;SDS011;66062;52.464;16.922;2023-07-16T08:21:05;2.10;;;1.02;;
77109;SDS011;66062;52.464;16.922;2023-07-16T08:23:31;2.38;;;1.02;;
77109;SDS011;66062;52.464;16.922;2023-07-16T08:25:56;2.38;;;1.40;;
77109;SDS011;66062;52.464;16.922;2023-07-16T08:28:22;3.58;;;1.58;;
77109;SDS011;66062;52.464;16.922;2023-07-16T08:30:47;2.95;;;1.50;;
77109;SDS011;66062;52.464;16.922;2023-07-16T08:33:13;2.10;;;1.00;;
77109;SDS011;66062;52.464;16.922;2023-07-16T08:35:39;3.42;;;1.33;;
77109;SDS011;66062;52.464;16.922;2023-07-16T08:38:05;3.63;;;1.45;;
77109;SDS011;66062;52.464;16.922;2023-07-16T08:40:34;2.03;;;1.20;;
77109;SDS011;66062;52.464;16.922;2023-07-16T08:43:00;2.75;;;1.30;;
77109;SDS011;66062;52.464;16.922;2023-07-16T08:45:28;2.75;;;1.23;;
77109;SDS011;66062;52.464;16.922;2023-07-16T08:47:55;2.53;;;1.48;;
77109;SDS011;66062;52.464;16.922;2023-07-16T08:50:21;2.08;;;1.10;;
77109;SDS011;66062;52.464;16.922;2023-07-16T08:52:47;4.05;;;1.90;;
77109;SDS011;66062;52.464;16.922;2023-07-16T08:55:13;3.20;;;1.35;;
77109;SDS011;66062;52.464;16.922;2023-07-16T08:57:39;3.70;;;1.05;;
77109;SDS011;66062;52.464;16.922;2023-07-16T09:00:05;2.80;;;1.35;;
77109;SDS011;66062;52.464;16.922;2023-07-16T09:02:32;2.97;;;1.30;;
77109;SDS011;66062;52.464;16.922;2023-07-16T09:04:57;3.97;;;1.38;;
77109;SDS011;66062;52.464;16.922;2023-07-16T09:07:23;3.85;;;1.55;;
77109;SDS011;66062;52.464;16.922;2023-07-16T09:09:56;4.22;;;1.55;;
77109;SDS011;66062;52.464;16.922;2023-07-16T09:12:26;2.53;;;1.25;;
77109;SDS011;66062;52.464;16.922;2023-07-16T09:14:52;4.38;;;2.42;;
77109;SDS011;66062;52.464;16.922;2023-07-16T09:17:22;3.22;;;1.27;;
77109;SDS011;66062;52.464;16.922;2023-07-16T09:19:48;3.15;;;1.75;;
77109;SDS011;66062;52.464;16.922;2023-07-16T09:22:16;3.03;;;1.52;;
77109;SDS011;66062;52.464;16.922;2023-07-16T09:24:44;4.57;;;2.17;;
77109;SDS011;66062;52.464;16.922;2023-07-16T09:27:12;3.35;;;1.58;;
77109;SDS011;66062;52.464;16.922;2023-07-16T09:29:38;3.10;;;1.85;;
77109;SDS011;66062;52.464;16.922;2023-07-16T09:32:04;2.10;;;1.20;;
77109;SDS011;66062;52.464;16.922;2023-07-16T09:34:30;3.88;;;1.80;;
77109;SDS011;66062;52.464;16.922;2023-07-16T09:36:57;2.38;;;1.42;;
77109;SDS011;66062;52.464;16.922;2023-07-16T09:41:49;2.10;;;1.35;;
77109;SDS011;66062;52.464;16.922;2023-07-16T09:44:15;2.47;;;1.52;;
77109;SDS011;66062;52.464;16.922;2023-07-16T09:46:42;3.28;;;1.55;;
77109;SDS011;66062;52.464;16.922;2023-07-16T09:51:38;2.47;;;1.33;;
77109;SDS011;66062;52.464;16.922;2023-07-16T09:54:05;2.80;;;1.63;;
77109;SDS011;66062;52.464;16.922;2023-07-16T09:59:09;2.17;;;1.35;;
77109;SDS011;66062;52.464;16.922;2023-07-16T10:01:38;1.77;;;1.27;;
77109;SDS011;66062;52.464;16.922;2023-07-16T10:04:14;3.30;;;1.48;;
77109;SDS011;66062;52.464;16.922;2023-07-16T10:06:59;2.17;;;1.13;;
77109;SDS011;66062;52.464;16.922;2023-07-16T10:14:39;3.50;;;1.02;;
77109;SDS011;66062;52.464;16.922;2023-07-16T10:17:15;3.05;;;1.13;;
77109;SDS011;66062;52.464;16.922;2023-07-16T10:19:57;3.10;;;1.13;;
77109;SDS011;66062;52.464;16.922;2023-07-16T10:22:39;2.05;;;1.08;;
77109;SDS011;66062;52.464;16.922;2023-07-16T10:25:10;2.05;;;1.13;;
77109;SDS011;66062;52.464;16.922;2023-07-16T10:27:47;1.77;;;0.98;;
77109;SDS011;66062;52.464;16.922;2023-07-16T10:30:15;2.13;;;1.23;;
77109;SDS011;66062;52.464;16.922;2023-07-16T10:32:41;1.60;;;0.70;;
77109;SDS011;66062;52.464;16.922;2023-07-16T10:35:08;4.63;;;1.45;;
77109;SDS011;66062;52.464;16.922;2023-07-16T10:37:34;2.50;;;0.93;;
77109;SDS011;66062;52.464;16.922;2023-07-16T10:40:01;2.65;;;1.00;;
77109;SDS011;66062;52.464;16.922;2023-07-16T10:42:30;1.90;;;1.00;;
77109;SDS011;66062;52.464;16.922;2023-07-16T10:44:58;1.98;;;1.23;;
77109;SDS011;66062;52.464;16.922;2023-07-16T10:47:29;2.60;;;0.90;;
77109;SDS011;66062;52.464;16.922;2023-07-16T10:49:56;2.20;;;1.13;;
77109;SDS011;66062;52.464;16.922;2023-07-16T10:52:22;2.38;;;0.80;;
77109;SDS011;66062;52.464;16.922;2023-07-16T10:54:49;3.03;;;1.13;;
77109;SDS011;66062;52.464;16.922;2023-07-16T10:57:20;2.13;;;0.88;;
77109;SDS011;66062;52.464;16.922;2023-07-16T10:59:46;2.03;;;1.27;;
77109;SDS011;66062;52.464;16.922;2023-07-16T11:02:14;3.83;;;1.30;;
77109;SDS011;66062;52.464;16.922;2023-07-16T11:04:41;2.58;;;1.00;;
77109;SDS011;66062;52.464;16.922;2023-07-16T11:07:08;2.15;;;1.42;;
77109;SDS011;66062;52.464;16.922;2023-07-16T11:12:19;3.13;;;1.40;;
77109;SDS011;66062;52.464;16.922;2023-07-16T11:14:47;3.65;;;1.60;;
77109;SDS011;66062;52.464;16.922;2023-07-16T11:17:17;1.80;;;0.82;;
77109;SDS011;66062;52.464;16.922;2023-07-16T11:19:46;3.35;;;1.08;;
77109;SDS011;66062;52.464;16.922;2023-07-16T11:22:13;3.95;;;0.93;;
77109;SDS011;66062;52.464;16.922;2023-07-16T11:24:40;3.38;;;1.30;;
77109;SDS011;66062;52.464;16.922;2023-07-16T11:27:19;2.05;;;1.00;;
77109;SDS011;66062;52.464;16.922;2023-07-16T11:32:13;2.72;;;1.02;;
77109;SDS011;66062;52.464;16.922;2023-07-16T11:34:54;2.20;;;1.25;;
77109;SDS011;66062;52.464;16.922;2023-07-16T11:37:22;1.45;;;0.80;;
77109;SDS011;66062;52.464;16.922;2023-07-16T11:39:49;2.00;;;1.02;;
77109;SDS011;66062;52.464;16.922;2023-07-16T11:42:14;1.92;;;0.70;;
77109;SDS011;66062;52.464;16.922;2023-07-16T11:44:48;2.50;;;0.93;;
77109;SDS011;66062;52.464;16.922;2023-07-16T11:47:14;1.83;;;1.10;;
77109;SDS011;66062;52.464;16.922;2023-07-16T11:49:40;2.00;;;1.02;;
77109;SDS011;66062;52.464;16.922;2023-07-16T11:52:05;2.10;;;1.27;;
77109;SDS011;66062;52.464;16.922;2023-07-16T11:54:32;2.15;;;1.17;;
77109;SDS011;66062;52.464;16.922;2023-07-16T11:56:57;2.03;;;1.10;;
77109;SDS011;66062;52.464;16.922;2023-07-16T11:59:23;2.90;;;1.15;;
77109;SDS011;66062;52.464;16.922;2023-07-16T12:01:48;1.83;;;1.00;;
77109;SDS011;66062;52.464;16.922;2023-07-16T12:04:15;2.08;;;1.20;;
77109;SDS011;66062;52.464;16.922;2023-07-16T12:06:41;3.50;;;1.13;;
77109;SDS011;66062;52.464;16.922;2023-07-16T12:09:07;2.10;;;1.33;;
77109;SDS011;66062;52.464;16.922;2023-07-16T12:11:32;2.95;;;1.23;;
77109;SDS011;66062;52.464;16.922;2023-07-16T12:13:57;2.13;;;1.20;;
77109;SDS011;66062;52.464;16.922;2023-07-16T12:16:23;2.17;;;1.17;;
77109;SDS011;66062;52.464;16.922;2023-07-16T12:18:48;3.10;;;1.38;;
77109;SDS011;66062;52.464;16.922;2023-07-16T12:21:14;2.65;;;1.05;;
77109;SDS011;66062;52.464;16.922;2023-07-16T12:23:39;3.00;;;1.15;;
77109;SDS011;66062;52.464;16.922;2023-07-16T12:26:04;5.65;;;3.03;;
77109;SDS011;66062;52.464;16.922;2023-07-16T12:28:30;3.05;;;1.60;;
77109;SDS011;66062;52.464;16.922;2023-07-16T12:30:57;1.65;;;0.88;;
77109;SDS011;66062;52.464;16.922;2023-07-16T12:33:22;2.42;;;1.13;;
77109;SDS011;66062;52.464;16.922;2023-07-16T12:35:48;2.75;;;1.35;;
77109;SDS011;66062;52.464;16.922;2023-07-16T12:38:13;2.97;;;1.00;;
77109;SDS011;66062;52.464;16.922;2023-07-16T12:40:39;1.92;;;1.05;;
77109;SDS011;66062;52.464;16.922;2023-07-16T12:43:06;2.90;;;0.90;;
77109;SDS011;66062;52.464;16.922;2023-07-16T12:45:31;2.10;;;1.20;;
77109;SDS011;66062;52.464;16.922;2023-07-16T12:47:57;3.58;;;1.27;;
77109;SDS011;66062;52.464;16.922;2023-07-16T12:50:23;1.60;;;0.85;;
77109;SDS011;66062;52.464;16.922;2023-07-16T12:52:48;2.47;;;1.10;;
77109;SDS011;66062;52.464;16.922;2023-07-16T12:55:14;2.95;;;0.80;;
77109;SDS011;66062;52.464;16.922;2023-07-16T12:57:39;2.42;;;1.20;;
77109;SDS011;66062;52.464;16.922;2023-07-16T13:00:05;1.80;;;1.00;;
77109;SDS011;66062;52.464;16.922;2023-07-16T13:02:31;2.53;;;1.33;;
77109;SDS011;66062;52.464;16.922;2023-07-16T13:04:56;1.88;;;0.93;;
77109;SDS011;66062;52.464;16.922;2023-07-16T13:07:21;3.92;;;1.17;;
77109;SDS011;66062;52.464;16.922;2023-07-16T13:09:47;1.75;;;0.90;;
77109;SDS011;66062;52.464;16.922;2023-07-16T13:12:12;1.50;;;0.80;;
77109;SDS011;66062;52.464;16.922;2023-07-16T13:14:38;1.40;;;0.77;;
77109;SDS011;66062;52.464;16.922;2023-07-16T13:17:03;3.90;;;1.00;;
77109;SDS011;66062;52.464;16.922;2023-07-16T13:19:30;4.03;;;1.20;;
77109;SDS011;66062;52.464;16.922;2023-07-16T13:21:55;3.17;;;1.30;;
77109;SDS011;66062;52.464;16.922;2023-07-16T13:24:21;2.00;;;1.20;;
77109;SDS011;66062;52.464;16.922;2023-07-16T13:26:46;2.47;;;0.98;;
77109;SDS011;66062;52.464;16.922;2023-07-16T13:29:12;2.33;;;1.27;;
77109;SDS011;66062;52.464;16.922;2023-07-16T13:31:37;2.38;;;1.13;;
77109;SDS011;66062;52.464;16.922;2023-07-16T13:34:02;1.63;;;0.95;;
77109;SDS011;66062;52.464;16.922;2023-07-16T13:36:28;2.78;;;1.23;;
77109;SDS011;66062;52.464;16.922;2023-07-16T13:38:53;3.97;;;1.15;;
77109;SDS011;66062;52.464;16.922;2023-07-16T13:41:19;3.75;;;1.02;;
77109;SDS011;66062;52.464;16.922;2023-07-16T13:43:44;2.05;;;0.82;;
77109;SDS011;66062;52.464;16.922;2023-07-16T13:46:09;2.50;;;1.02;;
77109;SDS011;66062;52.464;16.922;2023-07-16T13:48:35;2.80;;;0.98;;
77109;SDS011;66062;52.464;16.922;2023-07-16T13:51:00;2.38;;;1.23;;
77109;SDS011;66062;52.464;16.922;2023-07-16T13:53:26;2.67;;;1.10;;
77109;SDS011;66062;52.464;16.922;2023-07-16T13:55:51;1.90;;;0.95;;
77109;SDS011;66062;52.464;16.922;2023-07-16T13:58:18;1.80;;;1.10;;
77109;SDS011;66062;52.464;16.922;2023-07-16T14:00:43;1.58;;;1.02;;
77109;SDS011;66062;52.464;16.922;2023-07-16T14:03:09;3.85;;;1.77;;
77109;SDS011;66062;52.464;16.922;2023-07-16T14:05:34;6.53;;;5.05;;
77109;SDS011;66062;52.464;16.922;2023-07-16T14:08:04;4.22;;;1.45;;
77109;SDS011;66062;52.464;16.922;2023-07-16T14:12:55;2.63;;;1.27;;
77109;SDS011;66062;52.464;16.922;2023-07-16T14:15:20;3.75;;;1.08;;
77109;SDS011;66062;52.464;16.922;2023-07-16T14:17:46;2.78;;;1.38;;
77109;SDS011;66062;52.464;16.922;2023-07-16T14:20:11;5.18;;;1.15;;
77109;SDS011;66062;52.464;16.922;2023-07-16T14:22:37;2.88;;;1.00;;
77109;SDS011;66062;52.464;16.922;2023-07-16T14:25:02;2.45;;;1.10;;
77109;SDS011;66062;52.464;16.922;2023-07-16T14:27:28;2.58;;;1.30;;
77109;SDS011;66062;52.464;16.922;2023-07-16T14:29:54;2.40;;;1.20;;
77109;SDS011;66062;52.464;16.922;2023-07-16T14:32:19;2.40;;;1.23;;
77109;SDS011;66062;52.464;16.922;2023-07-16T14:34:44;3.63;;;1.95;;
77109;SDS011;66062;52.464;16.922;2023-07-16T14:37:10;4.57;;;2.20;;
77109;SDS011;66062;52.464;16.922;2023-07-16T14:39:35;4.72;;;1.48;;
77109;SDS011;66062;52.464;16.922;2023-07-16T14:42:01;5.45;;;1.25;;
77109;SDS011;66062;52.464;16.922;2023-07-16T14:44:29;3.58;;;1.50;;
77109;SDS011;66062;52.464;16.922;2023-07-16T14:49:20;2.60;;;1.20;;
77109;SDS011;66062;52.464;16.922;2023-07-16T14:51:47;4.05;;;1.98;;
77109;SDS011;66062;52.464;16.922;2023-07-16T14:54:12;2.13;;;1.30;;
77109;SDS011;66062;52.464;16.922;2023-07-16T14:56:37;3.47;;;1.13;;
77109;SDS011;66062;52.464;16.922;2023-07-16T14:59:03;4.22;;;1.48;;
77109;SDS011;66062;52.464;16.922;2023-07-16T15:01:28;3.05;;;1.15;;
77109;SDS011;66062;52.464;16.922;2023-07-16T15:03:54;2.28;;;1.13;;
77109;SDS011;66062;52.464;16.922;2023-07-16T15:06:19;3.97;;;1.23;;
77109;SDS011;66062;52.464;16.922;2023-07-16T15:08:45;2.40;;;1.23;;